createdAt,value
2023-01-09T00:01:42.820Z,2.34
2023-01-09T00:04:11.503Z,2.33
2023-01-09T00:06:43.629Z,2.35
2023-01-09T00:09:11.838Z,2.35
2023-01-09T00:11:39.959Z,2.36
2023-01-09T00:14:09.644Z,2.35
2023-01-09T00:16:39.097Z,2.36
2023-01-09T00:19:07.374Z,2.44
2023-01-09T00:21:36.796Z,2.46
2023-01-09T00:24:06.160Z,2.46
2023-01-09T00:26:34.670Z,2.49
2023-01-09T00:29:04.011Z,2.52
2023-01-09T00:31:32.448Z,2.55
2023-01-09T00:34:05.795Z,2.58
2023-01-09T00:36:33.945Z,2.62
2023-01-09T00:39:02.294Z,2.67
2023-01-09T00:41:52.157Z,2.73
2023-01-09T00:44:30.631Z,2.80
2023-01-09T00:47:08.539Z,2.85
2023-01-09T00:49:37.547Z,2.90
2023-01-09T00:52:07.232Z,2.96
2023-01-09T00:54:35.481Z,3.00
2023-01-09T00:57:03.875Z,3.03
2023-01-09T00:59:32.070Z,3.06
2023-01-09T01:02:00.479Z,3.08
2023-01-09T01:04:47.496Z,3.11
2023-01-09T01:07:34.332Z,3.14
2023-01-09T01:10:03.476Z,3.16
2023-01-09T01:12:31.602Z,3.17
2023-01-09T01:15:00.009Z,3.20
2023-01-09T01:17:28.153Z,3.21
2023-01-09T01:19:56.378Z,3.22
2023-01-09T01:22:24.834Z,3.23
2023-01-09T01:24:52.941Z,3.24
2023-01-09T01:27:21.059Z,3.27
2023-01-09T01:29:49.295Z,3.32
2023-01-09T01:32:17.363Z,3.34
2023-01-09T01:34:47.540Z,3.33
2023-01-09T01:37:15.942Z,3.37
2023-01-09T01:39:44.092Z,3.38
2023-01-09T01:42:14.425Z,3.38
2023-01-09T01:45:03.538Z,3.38
2023-01-09T01:47:38.498Z,3.41
2023-01-09T01:50:35.634Z,3.44
2023-01-09T01:53:11.605Z,3.48
2023-01-09T01:55:47.560Z,3.51
2023-01-09T01:58:16.354Z,3.54
2023-01-09T02:00:47.879Z,3.58
2023-01-09T02:03:20.162Z,3.61
2023-01-09T02:05:49.135Z,3.63
2023-01-09T02:08:18.062Z,3.65
2023-01-09T02:10:46.718Z,3.68
2023-01-09T02:13:15.265Z,3.70
2023-01-09T02:15:58.601Z,3.72
2023-01-09T02:18:52.155Z,3.70
2023-01-09T02:22:16.355Z,3.69
2023-01-09T02:25:28.600Z,3.70
2023-01-09T02:28:32.892Z,3.72
2023-01-09T02:31:21.949Z,3.75
2023-01-09T02:34:28.303Z,3.76
2023-01-09T02:36:56.360Z,3.76
2023-01-09T02:39:38.406Z,3.78
2023-01-09T02:42:17.971Z,3.79
2023-01-09T02:44:46.326Z,3.79
2023-01-09T02:47:20.719Z,3.79
2023-01-09T02:50:05.230Z,3.80
2023-01-09T02:53:04.203Z,3.81
2023-01-09T02:55:57.042Z,3.81
2023-01-09T02:59:14.548Z,3.77
2023-01-09T03:01:58.300Z,3.78
2023-01-09T03:04:55.702Z,3.77
2023-01-09T03:07:53.891Z,3.76
2023-01-09T03:10:38.737Z,3.70
2023-01-09T03:13:10.784Z,3.65
2023-01-09T03:15:42.420Z,3.62
2023-01-09T03:18:13.995Z,3.59
2023-01-09T03:20:42.930Z,3.57
2023-01-09T03:23:10.988Z,3.54
2023-01-09T03:25:39.183Z,3.48
2023-01-09T03:28:18.633Z,3.43
2023-01-09T03:30:46.780Z,3.41
2023-01-09T03:33:14.872Z,3.37
2023-01-09T03:35:42.982Z,3.33
2023-01-09T03:38:11.334Z,3.29
2023-01-09T03:40:40.258Z,3.25
2023-01-09T03:43:08.403Z,3.22
2023-01-09T03:45:36.657Z,3.19
2023-01-09T03:48:05.245Z,3.18
2023-01-09T03:50:33.360Z,3.15
2023-01-09T03:53:01.844Z,3.14
2023-01-09T03:55:30.134Z,3.13
2023-01-09T03:57:58.238Z,3.10
2023-01-09T04:00:26.455Z,3.08
2023-01-09T04:02:54.587Z,3.06
2023-01-09T04:05:22.813Z,3.04
2023-01-09T04:07:50.995Z,3.01
2023-01-09T04:10:19.205Z,2.99
2023-01-09T04:12:47.316Z,2.96
2023-01-09T04:15:15.586Z,2.93
2023-01-09T04:17:43.707Z,2.91
2023-01-09T04:20:12.224Z,2.87
2023-01-09T04:22:40.648Z,2.85
2023-01-09T04:25:09.636Z,2.84
2023-01-09T04:27:37.841Z,2.83
2023-01-09T04:30:06.904Z,2.82
2023-01-09T04:32:35.031Z,2.81
2023-01-09T04:35:03.271Z,2.78
2023-01-09T04:37:31.402Z,2.76
2023-01-09T04:39:59.532Z,2.73
2023-01-09T04:42:27.639Z,2.73
2023-01-09T04:44:55.830Z,2.72
2023-01-09T04:47:24.105Z,2.71
2023-01-09T04:49:52.349Z,2.70
2023-01-09T04:52:20.549Z,2.69
2023-01-09T04:54:48.694Z,2.69
2023-01-09T04:57:17.528Z,2.68
2023-01-09T04:59:45.686Z,2.69
2023-01-09T05:02:14.211Z,2.68
2023-01-09T05:04:42.753Z,2.67
2023-01-09T05:07:10.878Z,2.65
2023-01-09T05:09:39.052Z,2.64
2023-01-09T05:12:07.761Z,2.62
2023-01-09T05:14:35.890Z,2.60
2023-01-09T05:17:04.046Z,2.57
2023-01-09T05:19:32.178Z,2.56
2023-01-09T05:22:00.297Z,2.55
2023-01-09T05:24:28.506Z,2.55
2023-01-09T05:26:56.683Z,2.55
2023-01-09T05:29:25.016Z,2.55
2023-01-09T05:31:53.169Z,2.56
2023-01-09T05:34:22.052Z,2.56
2023-01-09T05:36:50.139Z,2.57
2023-01-09T05:39:18.309Z,2.57
2023-01-09T05:41:46.405Z,2.67
2023-01-09T05:44:14.551Z,2.77
2023-01-09T05:46:42.748Z,2.82
2023-01-09T05:49:10.906Z,2.86
2023-01-09T05:51:39.070Z,2.91
2023-01-09T05:54:07.585Z,2.94
2023-01-09T05:56:35.765Z,2.99
2023-01-09T05:59:03.876Z,3.04
2023-01-09T06:01:32.064Z,3.09
2023-01-09T06:04:00.235Z,3.14
2023-01-09T06:06:28.406Z,3.19
2023-01-09T06:08:56.517Z,3.23
2023-01-09T06:11:24.689Z,3.26
2023-01-09T06:13:52.786Z,3.31
2023-01-09T06:16:20.948Z,3.34
2023-01-09T06:18:49.091Z,3.40
2023-01-09T06:21:17.328Z,3.45
2023-01-09T06:23:45.598Z,3.47
2023-01-09T06:26:13.875Z,3.51
2023-01-09T06:28:44.501Z,3.56
2023-01-09T06:31:13.391Z,3.58
2023-01-09T06:33:41.843Z,3.61
2023-01-09T06:36:10.057Z,3.65
2023-01-09T06:38:38.192Z,3.67
2023-01-09T06:41:06.604Z,3.71
2023-01-09T06:43:34.774Z,3.76
2023-01-09T06:46:04.282Z,3.80
2023-01-09T06:48:33.521Z,3.84
2023-01-09T06:51:02.092Z,3.89
2023-01-09T06:53:30.242Z,3.92
2023-01-09T06:55:58.400Z,3.93
2023-01-09T06:58:26.559Z,3.97
2023-01-09T07:00:56.197Z,3.99
2023-01-09T07:03:24.401Z,4.01
2023-01-09T07:05:52.545Z,4.04
2023-01-09T07:08:20.756Z,4.08
2023-01-09T07:10:49.165Z,4.09
2023-01-09T07:13:17.274Z,4.11
2023-01-09T07:15:45.517Z,4.14
2023-01-09T07:18:13.681Z,4.16
2023-01-09T07:20:42.326Z,4.20
2023-01-09T07:23:13.846Z,4.25
2023-01-09T07:25:43.026Z,4.28
2023-01-09T07:28:11.641Z,4.30
2023-01-09T07:30:39.771Z,4.30
2023-01-09T07:33:07.946Z,4.32
2023-01-09T07:35:36.248Z,4.36
2023-01-09T07:38:04.489Z,4.38
2023-01-09T07:40:32.629Z,4.40
2023-01-09T07:43:00.888Z,4.43
2023-01-09T07:45:28.985Z,4.46
2023-01-09T07:47:59.654Z,4.49
2023-01-09T07:50:27.969Z,4.48
2023-01-09T07:52:56.122Z,4.46
2023-01-09T07:55:24.275Z,4.43
2023-01-09T07:57:52.944Z,4.40
2023-01-09T08:00:21.527Z,4.36
2023-01-09T08:02:53.989Z,4.34
2023-01-09T08:05:22.751Z,4.34
2023-01-09T08:07:51.479Z,4.34
2023-01-09T08:10:20.629Z,4.34
2023-01-09T08:12:49.652Z,4.34
2023-01-09T08:15:18.043Z,4.35
2023-01-09T08:17:46.744Z,4.37
2023-01-09T08:20:17.452Z,4.39
2023-01-09T08:22:49.724Z,4.41
2023-01-09T08:25:18.383Z,4.44
2023-01-09T08:27:47.037Z,4.48
2023-01-09T08:30:16.708Z,4.51
2023-01-09T08:32:50.740Z,4.53
2023-01-09T08:35:19.241Z,4.56
2023-01-09T08:37:48.713Z,4.56
2023-01-09T08:40:18.215Z,4.58
2023-01-09T08:43:04.985Z,4.60
2023-01-09T08:46:26.043Z,4.64
2023-01-09T08:48:54.249Z,4.69
2023-01-09T08:51:22.436Z,4.73
2023-01-09T08:53:50.542Z,4.77
2023-01-09T08:56:18.659Z,4.80
2023-01-09T08:58:46.779Z,4.83
2023-01-09T09:01:14.910Z,4.88
2023-01-09T09:03:43.082Z,4.91
2023-01-09T09:06:11.192Z,4.93
2023-01-09T09:08:39.312Z,4.97
2023-01-09T09:11:07.571Z,4.98
2023-01-09T09:13:35.730Z,5.00
2023-01-09T09:16:04.003Z,5.03
2023-01-09T09:18:32.140Z,5.07
2023-01-09T09:21:00.236Z,5.12
2023-01-09T09:23:28.349Z,5.16
2023-01-09T09:25:56.509Z,5.20
2023-01-09T09:28:24.589Z,5.26
2023-01-09T09:30:52.713Z,5.32
2023-01-09T09:33:20.997Z,5.36
2023-01-09T09:35:49.168Z,5.41
2023-01-09T09:38:17.939Z,5.45
2023-01-09T09:41:07.434Z,5.49
2023-01-09T09:44:30.784Z,5.55
2023-01-09T09:47:20.534Z,5.65
2023-01-09T09:50:42.725Z,5.80
2023-01-09T09:53:26.480Z,5.90
2023-01-09T09:55:54.752Z,5.98
2023-01-09T09:58:41.739Z,6.05
2023-01-09T10:01:15.700Z,6.15
2023-01-09T10:03:49.013Z,6.23
2023-01-09T10:06:42.463Z,6.33
2023-01-09T10:09:37.102Z,6.44
2023-01-09T10:12:15.707Z,6.51
2023-01-09T10:14:43.896Z,6.58
2023-01-09T10:17:38.332Z,6.62
2023-01-09T10:20:40.652Z,6.69
2023-01-09T10:23:11.657Z,6.76
2023-01-09T10:26:12.005Z,6.81
2023-01-09T10:29:12.663Z,6.81
2023-01-09T10:31:54.280Z,6.82
2023-01-09T10:34:28.519Z,6.87
2023-01-09T10:37:15.178Z,6.90
2023-01-09T10:40:14.875Z,6.93
2023-01-09T10:42:47.460Z,6.93
2023-01-09T10:45:36.673Z,6.93
2023-01-09T10:48:35.511Z,6.93
2023-01-09T10:51:31.755Z,6.92
2023-01-09T10:53:59.860Z,6.88
2023-01-09T10:56:34.465Z,6.87
2023-01-09T10:59:02.689Z,6.88
2023-01-09T11:01:34.596Z,6.89
2023-01-09T11:04:03.151Z,6.89
2023-01-09T11:06:47.678Z,6.90
2023-01-09T11:09:16.917Z,6.92
2023-01-09T11:11:45.491Z,6.90
2023-01-09T11:14:27.956Z,6.90
2023-01-09T11:17:04.165Z,6.88
2023-01-09T11:19:35.549Z,6.85
2023-01-09T11:22:14.576Z,6.83
2023-01-09T11:24:43.011Z,6.77
2023-01-09T11:27:14.250Z,6.73
2023-01-09T11:29:43.386Z,6.70
2023-01-09T11:32:24.868Z,6.66
2023-01-09T11:34:53.011Z,6.62
2023-01-09T11:37:31.415Z,6.61
2023-01-09T11:40:01.004Z,6.60
2023-01-09T11:42:48.630Z,6.58
2023-01-09T11:45:20.488Z,6.56
2023-01-09T11:47:48.668Z,6.56
2023-01-09T11:50:25.178Z,6.55
2023-01-09T11:53:16.483Z,6.52
2023-01-09T11:55:47.274Z,6.47
2023-01-09T11:58:21.867Z,6.44
2023-01-09T12:01:17.105Z,6.43
2023-01-09T12:04:12.993Z,6.44
2023-01-09T12:06:43.911Z,6.43
2023-01-09T12:09:28.545Z,6.44
2023-01-09T12:12:23.966Z,6.46
2023-01-09T12:15:08.600Z,6.50
2023-01-09T12:17:56.488Z,6.53
2023-01-09T12:20:41.653Z,6.56
2023-01-09T12:23:49.884Z,6.58
2023-01-09T12:26:52.298Z,6.61
2023-01-09T12:29:58.258Z,6.66
2023-01-09T12:33:02.951Z,6.70
2023-01-09T12:35:38.916Z,6.76
2023-01-09T12:38:47.898Z,6.81
2023-01-09T12:41:34.100Z,6.87
2023-01-09T12:44:35.873Z,6.92
2023-01-09T12:47:46.066Z,6.95
2023-01-09T12:50:43.381Z,7.03
2023-01-09T12:53:22.099Z,7.09
2023-01-09T12:56:11.627Z,7.10
2023-01-09T12:58:49.396Z,7.12
2023-01-09T13:01:26.269Z,7.18
2023-01-09T13:04:24.425Z,7.23
2023-01-09T13:07:02.326Z,7.27
2023-01-09T13:09:47.474Z,7.28
2023-01-09T13:12:21.568Z,7.30
2023-01-09T13:15:02.180Z,7.31
2023-01-09T13:17:44.013Z,7.33
2023-01-09T13:20:29.722Z,7.33
2023-01-09T13:23:00.177Z,7.32
2023-01-09T13:25:36.881Z,7.33
2023-01-09T13:28:18.760Z,7.36
2023-01-09T13:31:46.448Z,7.39
2023-01-09T13:34:22.860Z,7.39
2023-01-09T13:36:54.805Z,7.40
2023-01-09T13:39:25.679Z,7.39
2023-01-09T13:42:18.331Z,7.37
2023-01-09T13:44:49.440Z,7.35
2023-01-09T13:47:28.052Z,7.31
2023-01-09T13:50:11.819Z,7.28
2023-01-09T13:52:42.263Z,7.26
2023-01-09T13:55:16.105Z,7.24
2023-01-09T13:58:05.836Z,7.22
2023-01-09T14:00:36.937Z,7.19
2023-01-09T14:03:38.353Z,7.18
2023-01-09T14:06:14.307Z,7.15
2023-01-09T14:08:44.163Z,7.14
2023-01-09T14:11:20.614Z,7.13
2023-01-09T14:14:00.352Z,7.12
2023-01-09T14:16:30.296Z,7.11
2023-01-09T14:19:27.690Z,7.09
2023-01-09T14:21:58.099Z,7.08
2023-01-09T14:24:42.657Z,7.07
2023-01-09T14:28:03.657Z,7.06
2023-01-09T14:31:00.406Z,7.01
2023-01-09T14:33:32.635Z,6.96
2023-01-09T14:36:19.494Z,6.93
2023-01-09T14:38:53.226Z,6.91
2023-01-09T14:42:06.374Z,6.88
2023-01-09T14:44:53.265Z,6.85
2023-01-09T14:47:55.534Z,6.83
2023-01-09T14:50:51.257Z,6.80
2023-01-09T14:53:30.701Z,6.78
2023-01-09T14:56:01.744Z,6.75
2023-01-09T14:58:36.890Z,6.74
2023-01-09T15:01:12.461Z,6.73
2023-01-09T15:03:51.519Z,6.72
2023-01-09T15:06:28.131Z,6.70
2023-01-09T15:09:03.469Z,6.69
2023-01-09T15:11:33.585Z,6.67
2023-01-09T15:14:04.349Z,6.67
2023-01-09T15:16:33.631Z,6.66
2023-01-09T15:19:06.249Z,6.66
2023-01-09T15:21:34.474Z,6.66
2023-01-09T15:24:27.204Z,6.66
2023-01-09T15:27:01.956Z,6.66
2023-01-09T15:29:30.295Z,6.66
2023-01-09T15:32:29.733Z,6.67
2023-01-09T15:34:58.091Z,6.69
2023-01-09T15:37:32.938Z,6.70
2023-01-09T15:40:05.323Z,6.71
2023-01-09T15:42:57.146Z,6.72
2023-01-09T15:45:29.417Z,6.75
2023-01-09T15:48:24.590Z,6.76
2023-01-09T15:51:11.988Z,6.79
2023-01-09T15:53:50.284Z,6.80
2023-01-09T15:56:30.675Z,6.83
2023-01-09T15:59:00.576Z,6.93
2023-01-09T16:01:37.332Z,6.95
2023-01-09T16:04:17.078Z,6.97
2023-01-09T16:06:51.299Z,7.01
2023-01-09T16:09:28.250Z,7.05
2023-01-09T16:12:04.125Z,7.09
2023-01-09T16:14:38.537Z,7.14
2023-01-09T16:17:18.641Z,7.19
2023-01-09T16:20:18.082Z,7.25
2023-01-09T16:22:55.508Z,7.29
2023-01-09T16:25:37.069Z,7.33
2023-01-09T16:28:28.241Z,7.37
2023-01-09T16:31:03.708Z,7.39
2023-01-09T16:33:32.135Z,7.40
2023-01-09T16:36:00.913Z,7.41
2023-01-09T16:38:29.157Z,7.41
2023-01-09T16:41:24.874Z,7.42
2023-01-09T16:43:53.120Z,7.43
2023-01-09T16:46:21.656Z,7.45
2023-01-09T16:48:49.966Z,7.47
2023-01-09T16:51:22.291Z,7.49
2023-01-09T16:53:50.490Z,7.48
2023-01-09T16:56:23.396Z,7.48
2023-01-09T16:58:54.703Z,7.47
2023-01-09T17:01:23.275Z,7.47
2023-01-09T17:03:52.589Z,7.50
2023-01-09T17:06:39.590Z,7.52
2023-01-09T17:09:17.950Z,7.50
2023-01-09T17:11:46.319Z,7.50
2023-01-09T17:14:14.921Z,7.51
2023-01-09T17:16:46.778Z,7.52
2023-01-09T17:19:20.684Z,7.54
2023-01-09T17:21:48.937Z,7.53
2023-01-09T17:24:35.936Z,7.53
2023-01-09T17:27:22.842Z,7.53
2023-01-09T17:29:50.959Z,7.54
2023-01-09T17:32:19.307Z,7.54
2023-01-09T17:34:47.457Z,7.54
2023-01-09T17:37:18.129Z,7.57
2023-01-09T17:39:46.442Z,7.58
2023-01-09T17:42:14.647Z,7.59
2023-01-09T17:44:42.744Z,7.59
2023-01-09T17:47:15.438Z,7.58
2023-01-09T17:49:43.718Z,7.58
2023-01-09T17:52:12.063Z,7.59
2023-01-09T17:54:40.406Z,7.58
2023-01-09T17:57:16.255Z,7.56
2023-01-09T17:59:44.990Z,7.55
2023-01-09T18:02:18.565Z,7.52
2023-01-09T18:04:46.833Z,7.48
2023-01-09T18:07:17.208Z,7.45
2023-01-09T18:09:45.416Z,7.42
2023-01-09T18:12:13.741Z,7.38
2023-01-09T18:14:42.218Z,7.34
2023-01-09T18:17:13.158Z,7.30
2023-01-09T18:19:41.325Z,7.28
2023-01-09T18:22:09.439Z,7.23
2023-01-09T18:24:37.762Z,7.18
2023-01-09T18:27:05.879Z,7.13
2023-01-09T18:29:34.100Z,7.09
2023-01-09T18:32:02.239Z,7.07
2023-01-09T18:34:30.403Z,7.02
2023-01-09T18:36:58.549Z,6.99
2023-01-09T18:40:11.885Z,6.99
2023-01-09T18:42:41.027Z,6.92
2023-01-09T18:45:10.514Z,6.88
2023-01-09T18:47:38.685Z,6.83
2023-01-09T18:50:07.343Z,6.79
2023-01-09T18:52:35.454Z,6.76
2023-01-09T18:55:04.209Z,6.72
2023-01-09T18:57:32.293Z,6.69
2023-01-09T19:00:00.633Z,6.65
2023-01-09T19:02:28.888Z,6.61
2023-01-09T19:04:57.134Z,6.56
2023-01-09T19:07:25.387Z,6.52
2023-01-09T19:09:53.714Z,6.48
2023-01-09T19:12:21.924Z,6.44
2023-01-09T19:14:50.112Z,6.42
2023-01-09T19:17:18.245Z,6.40
2023-01-09T19:19:46.361Z,6.39
2023-01-09T19:22:15.228Z,6.37
2023-01-09T19:24:43.528Z,6.37
2023-01-09T19:27:11.769Z,6.37
2023-01-09T19:29:40.234Z,6.36
2023-01-09T19:32:08.651Z,6.35
2023-01-09T19:34:36.823Z,6.35
2023-01-09T19:37:05.220Z,6.34
2023-01-09T19:39:33.982Z,6.33
2023-01-09T19:42:02.134Z,6.33
2023-01-09T19:44:32.511Z,6.33
2023-01-09T19:47:00.640Z,6.32
2023-01-09T19:49:28.797Z,6.31
2023-01-09T19:51:57.013Z,6.31
2023-01-09T19:54:25.192Z,6.31
2023-01-09T19:56:53.283Z,6.31
2023-01-09T19:59:21.459Z,6.31
2023-01-09T20:01:49.708Z,6.31
2023-01-09T20:04:18.732Z,6.31
2023-01-09T20:06:49.547Z,6.32
2023-01-09T20:09:22.254Z,6.32
2023-01-09T20:11:50.429Z,6.32
2023-01-09T20:14:19.887Z,6.31
2023-01-09T20:16:48.863Z,6.30
2023-01-09T20:19:17.263Z,6.30
2023-01-09T20:21:45.437Z,6.28
2023-01-09T20:24:16.889Z,6.27
2023-01-09T20:26:48.474Z,6.26
2023-01-09T20:29:16.998Z,6.25
2023-01-09T20:31:45.158Z,6.25
2023-01-09T20:34:14.874Z,6.25
2023-01-09T20:36:43.583Z,6.26
2023-01-09T20:39:12.369Z,6.25
2023-01-09T20:41:40.785Z,6.27
2023-01-09T20:44:14.455Z,6.27
2023-01-09T20:46:49.441Z,6.28
2023-01-09T20:49:18.625Z,6.29
2023-01-09T20:51:50.543Z,6.30
2023-01-09T20:54:21.709Z,6.31
2023-01-09T20:56:50.551Z,6.31
2023-01-09T20:59:22.847Z,6.32
2023-01-09T21:01:51.503Z,6.33
2023-01-09T21:04:20.128Z,6.32
2023-01-09T21:06:50.220Z,6.32
2023-01-09T21:09:20.260Z,6.32
2023-01-09T21:11:48.409Z,6.31
2023-01-09T21:14:16.806Z,6.31
2023-01-09T21:16:53.842Z,6.29
2023-01-09T21:19:23.400Z,6.30
2023-01-09T21:21:53.271Z,6.29
2023-01-09T21:24:21.845Z,6.27
2023-01-09T21:26:49.935Z,6.26
2023-01-09T21:29:18.136Z,6.25
2023-01-09T21:31:46.421Z,6.25
2023-01-09T21:34:17.430Z,6.25
2023-01-09T21:36:48.919Z,6.26
2023-01-09T21:39:20.334Z,6.25
2023-01-09T21:42:06.997Z,6.25
2023-01-09T21:44:54.448Z,6.22
2023-01-09T21:47:22.963Z,6.20
2023-01-09T21:49:51.323Z,6.18
2023-01-09T21:52:19.517Z,6.17
2023-01-09T21:54:47.703Z,6.14
2023-01-09T21:57:15.825Z,6.11
2023-01-09T21:59:44.237Z,6.09
2023-01-09T22:02:15.857Z,6.06
2023-01-09T22:04:48.839Z,6.04
2023-01-09T22:07:17.912Z,6.03
2023-01-09T22:09:46.079Z,6.03
2023-01-09T22:12:14.227Z,6.01
2023-01-09T22:14:42.356Z,6.01
2023-01-09T22:17:10.480Z,6.00
2023-01-09T22:19:38.718Z,6.00
2023-01-09T22:22:08.610Z,6.00
2023-01-09T22:24:37.056Z,6.00
2023-01-09T22:27:05.236Z,5.99
2023-01-09T22:29:33.489Z,5.97
2023-01-09T22:32:01.670Z,5.96
2023-01-09T22:34:31.178Z,6.00
2023-01-09T22:36:59.542Z,6.07
2023-01-09T22:39:27.902Z,6.09
2023-01-09T22:41:56.152Z,6.11
2023-01-09T22:44:24.239Z,6.15
2023-01-09T22:46:52.367Z,6.19
2023-01-09T22:49:20.478Z,6.22
2023-01-09T22:51:48.696Z,6.26
2023-01-09T22:54:17.043Z,6.30
2023-01-09T22:56:45.211Z,6.33
2023-01-09T22:59:13.381Z,6.34
2023-01-09T23:01:41.551Z,6.37
2023-01-09T23:04:13.877Z,6.37
2023-01-09T23:06:42.219Z,6.38
2023-01-09T23:09:10.377Z,6.39
2023-01-09T23:11:57.034Z,6.41
2023-01-09T23:14:25.150Z,6.42
2023-01-09T23:16:53.734Z,6.43
2023-01-09T23:19:22.343Z,6.45
2023-01-09T23:21:50.657Z,6.46
2023-01-09T23:24:19.286Z,6.45
2023-01-09T23:26:47.839Z,6.46
2023-01-09T23:29:16.117Z,6.45
2023-01-09T23:31:45.534Z,6.41
2023-01-09T23:34:19.762Z,6.37
2023-01-09T23:36:48.272Z,6.38
2023-01-09T23:39:16.818Z,6.39
2023-01-09T23:42:04.187Z,6.38
2023-01-09T23:44:33.085Z,6.40
2023-01-09T23:47:01.168Z,6.37
2023-01-09T23:49:29.490Z,6.34
2023-01-09T23:51:58.016Z,6.31
2023-01-09T23:54:26.161Z,6.27
2023-01-09T23:56:56.456Z,6.24
2023-01-09T23:59:24.829Z,6.22
